sensor_id;sensor_type;location;lat;lon;timestamp;P1;durP1;ratioP1;P2;durP2;ratioP2
26502;SDS011;14177;51.520;6.764;2023-08-07T00:02:12;5.65;;;1.40;;
26502;SDS011;14177;51.520;6.764;2023-08-07T00:04:39;6.97;;;1.42;;
26502;SDS011;14177;51.520;6.764;2023-08-07T00:07:06;3.35;;;1.35;;
26502;SDS011;14177;51.520;6.764;2023-08-07T00:09:33;4.85;;;1.25;;
26502;SDS011;14177;51.520;6.764;2023-08-07T00:12:00;5.75;;;1.50;;
26502;SDS011;14177;51.520;6.764;2023-08-07T00:14:27;6.55;;;1.40;;
26502;SDS011;14177;51.520;6.764;2023-08-07T00:16:54;4.95;;;1.30;;
26502;SDS011;14177;51.520;6.764;2023-08-07T00:19:21;8.57;;;1.40;;
26502;SDS011;14177;51.520;6.764;2023-08-07T00:21:48;8.07;;;1.42;;
26502;SDS011;14177;51.520;6.764;2023-08-07T00:24:15;6.55;;;1.40;;
26502;SDS011;14177;51.520;6.764;2023-08-07T00:26:42;3.03;;;1.30;;
26502;SDS011;14177;51.520;6.764;2023-08-07T00:29:09;6.03;;;1.00;;
26502;SDS011;14177;51.520;6.764;2023-08-07T00:31:36;9.55;;;1.63;;
26502;SDS011;14177;51.520;6.764;2023-08-07T00:34:03;7.03;;;1.17;;
26502;SDS011;14177;51.520;6.764;2023-08-07T00:36:30;3.05;;;1.10;;
26502;SDS011;14177;51.520;6.764;2023-08-07T00:39:01;4.88;;;1.33;;
26502;SDS011;14177;51.520;6.764;2023-08-07T00:41:31;6.38;;;1.65;;
26502;SDS011;14177;51.520;6.764;2023-08-07T00:43:58;6.82;;;1.60;;
26502;SDS011;14177;51.520;6.764;2023-08-07T00:46:26;5.13;;;1.58;;
26502;SDS011;14177;51.520;6.764;2023-08-07T00:48:55;4.20;;;1.40;;
26502;SDS011;14177;51.520;6.764;2023-08-07T00:51:23;5.43;;;1.10;;
26502;SDS011;14177;51.520;6.764;2023-08-07T00:53:50;7.40;;;1.48;;
26502;SDS011;14177;51.520;6.764;2023-08-07T00:56:18;5.00;;;1.30;;
26502;SDS011;14177;51.520;6.764;2023-08-07T00:58:45;10.13;;;1.58;;
26502;SDS011;14177;51.520;6.764;2023-08-07T01:01:13;6.25;;;1.20;;
26502;SDS011;14177;51.520;6.764;2023-08-07T01:03:41;5.93;;;1.80;;
26502;SDS011;14177;51.520;6.764;2023-08-07T01:06:08;9.77;;;1.38;;
26502;SDS011;14177;51.520;6.764;2023-08-07T01:08:35;5.15;;;1.20;;
26502;SDS011;14177;51.520;6.764;2023-08-07T01:14:07;7.35;;;1.63;;
26502;SDS011;14177;51.520;6.764;2023-08-07T01:19:42;11.50;;;1.45;;
26502;SDS011;14177;51.520;6.764;2023-08-07T01:22:11;4.70;;;1.15;;
26502;SDS011;14177;51.520;6.764;2023-08-07T01:24:42;10.93;;;1.20;;
26502;SDS011;14177;51.520;6.764;2023-08-07T01:35:39;5.88;;;1.27;;
26502;SDS011;14177;51.520;6.764;2023-08-07T01:38:11;8.68;;;1.55;;
26502;SDS011;14177;51.520;6.764;2023-08-07T01:40:39;6.60;;;1.50;;
26502;SDS011;14177;51.520;6.764;2023-08-07T01:43:08;3.28;;;1.00;;
26502;SDS011;14177;51.520;6.764;2023-08-07T01:45:35;4.97;;;0.98;;
26502;SDS011;14177;51.520;6.764;2023-08-07T01:48:02;5.70;;;1.02;;
26502;SDS011;14177;51.520;6.764;2023-08-07T01:50:30;5.20;;;1.00;;
26502;SDS011;14177;51.520;6.764;2023-08-07T01:52:57;4.95;;;1.20;;
26502;SDS011;14177;51.520;6.764;2023-08-07T01:55:25;6.35;;;1.27;;
26502;SDS011;14177;51.520;6.764;2023-08-07T01:57:52;7.38;;;0.80;;
26502;SDS011;14177;51.520;6.764;2023-08-07T02:00:19;5.40;;;1.25;;
26502;SDS011;14177;51.520;6.764;2023-08-07T02:02:47;1.65;;;0.73;;
26502;SDS011;14177;51.520;6.764;2023-08-07T02:05:15;3.17;;;0.90;;
26502;SDS011;14177;51.520;6.764;2023-08-07T02:07:43;3.17;;;0.90;;
26502;SDS011;14177;51.520;6.764;2023-08-07T02:10:11;2.92;;;1.15;;
26502;SDS011;14177;51.520;6.764;2023-08-07T02:12:38;3.33;;;0.90;;
26502;SDS011;14177;51.520;6.764;2023-08-07T02:15:05;1.77;;;0.93;;
26502;SDS011;14177;51.520;6.764;2023-08-07T02:17:33;1.98;;;0.90;;
26502;SDS011;14177;51.520;6.764;2023-08-07T02:20:02;5.47;;;0.82;;
26502;SDS011;14177;51.520;6.764;2023-08-07T02:22:29;2.13;;;0.82;;
26502;SDS011;14177;51.520;6.764;2023-08-07T02:24:57;5.97;;;0.70;;
26502;SDS011;14177;51.520;6.764;2023-08-07T02:27:24;4.25;;;0.95;;
26502;SDS011;14177;51.520;6.764;2023-08-07T02:29:51;2.70;;;0.98;;
26502;SDS011;14177;51.520;6.764;2023-08-07T02:32:18;3.30;;;1.23;;
26502;SDS011;14177;51.520;6.764;2023-08-07T02:34:45;4.82;;;1.10;;
26502;SDS011;14177;51.520;6.764;2023-08-07T02:37:12;6.25;;;1.38;;
26502;SDS011;14177;51.520;6.764;2023-08-07T02:39:39;2.97;;;1.27;;
26502;SDS011;14177;51.520;6.764;2023-08-07T02:42:06;4.88;;;1.08;;
26502;SDS011;14177;51.520;6.764;2023-08-07T02:44:33;5.07;;;1.08;;
26502;SDS011;14177;51.520;6.764;2023-08-07T02:47:00;6.78;;;1.13;;
26502;SDS011;14177;51.520;6.764;2023-08-07T02:49:28;8.00;;;1.83;;
26502;SDS011;14177;51.520;6.764;2023-08-07T02:51:55;3.97;;;1.25;;
26502;SDS011;14177;51.520;6.764;2023-08-07T02:54:22;4.20;;;1.20;;
26502;SDS011;14177;51.520;6.764;2023-08-07T02:56:49;3.78;;;1.33;;
26502;SDS011;14177;51.520;6.764;2023-08-07T02:59:16;3.55;;;1.13;;
26502;SDS011;14177;51.520;6.764;2023-08-07T03:01:44;5.97;;;1.52;;
26502;SDS011;14177;51.520;6.764;2023-08-07T03:04:11;7.75;;;1.35;;
26502;SDS011;14177;51.520;6.764;2023-08-07T03:06:38;6.63;;;1.42;;
26502;SDS011;14177;51.520;6.764;2023-08-07T03:09:05;7.70;;;1.63;;
26502;SDS011;14177;51.520;6.764;2023-08-07T03:11:32;8.40;;;1.80;;
26502;SDS011;14177;51.520;6.764;2023-08-07T03:13:59;7.93;;;1.70;;
26502;SDS011;14177;51.520;6.764;2023-08-07T03:16:26;5.95;;;1.48;;
26502;SDS011;14177;51.520;6.764;2023-08-07T03:18:53;9.80;;;1.75;;
26502;SDS011;14177;51.520;6.764;2023-08-07T03:21:20;7.40;;;1.77;;
26502;SDS011;14177;51.520;6.764;2023-08-07T03:23:47;9.13;;;1.70;;
26502;SDS011;14177;51.520;6.764;2023-08-07T03:26:14;9.45;;;1.95;;
26502;SDS011;14177;51.520;6.764;2023-08-07T03:28:46;4.22;;;1.70;;
26502;SDS011;14177;51.520;6.764;2023-08-07T03:31:15;8.35;;;1.52;;
26502;SDS011;14177;51.520;6.764;2023-08-07T03:33:42;10.40;;;1.98;;
26502;SDS011;14177;51.520;6.764;2023-08-07T03:36:11;6.30;;;1.42;;
26502;SDS011;14177;51.520;6.764;2023-08-07T03:38:39;9.32;;;1.70;;
26502;SDS011;14177;51.520;6.764;2023-08-07T03:41:06;6.95;;;1.58;;
26502;SDS011;14177;51.520;6.764;2023-08-07T03:43:35;9.88;;;2.13;;
26502;SDS011;14177;51.520;6.764;2023-08-07T03:46:02;11.05;;;1.80;;
26502;SDS011;14177;51.520;6.764;2023-08-07T03:48:30;10.60;;;1.85;;
26502;SDS011;14177;51.520;6.764;2023-08-07T03:51:06;6.75;;;1.45;;
26502;SDS011;14177;51.520;6.764;2023-08-07T03:53:47;8.20;;;1.85;;
26502;SDS011;14177;51.520;6.764;2023-08-07T03:56:14;4.63;;;1.58;;
26502;SDS011;14177;51.520;6.764;2023-08-07T03:58:41;9.63;;;1.52;;
26502;SDS011;14177;51.520;6.764;2023-08-07T04:01:08;9.80;;;1.67;;
26502;SDS011;14177;51.520;6.764;2023-08-07T04:03:38;10.30;;;2.05;;
26502;SDS011;14177;51.520;6.764;2023-08-07T04:06:05;7.68;;;1.58;;
26502;SDS011;14177;51.520;6.764;2023-08-07T04:08:32;7.18;;;1.70;;
26502;SDS011;14177;51.520;6.764;2023-08-07T04:11:03;8.82;;;1.85;;
26502;SDS011;14177;51.520;6.764;2023-08-07T04:13:33;8.77;;;1.80;;
26502;SDS011;14177;51.520;6.764;2023-08-07T04:16:01;5.68;;;1.65;;
26502;SDS011;14177;51.520;6.764;2023-08-07T04:18:31;8.15;;;1.45;;
26502;SDS011;14177;51.520;6.764;2023-08-07T04:21:01;4.43;;;1.80;;
26502;SDS011;14177;51.520;6.764;2023-08-07T04:23:30;9.23;;;2.53;;
26502;SDS011;14177;51.520;6.764;2023-08-07T04:25:58;14.93;;;3.03;;
26502;SDS011;14177;51.520;6.764;2023-08-07T04:28:29;9.13;;;2.03;;
26502;SDS011;14177;51.520;6.764;2023-08-07T04:30:56;9.05;;;2.03;;
26502;SDS011;14177;51.520;6.764;2023-08-07T04:33:24;9.15;;;2.38;;
26502;SDS011;14177;51.520;6.764;2023-08-07T04:35:51;6.57;;;1.77;;
26502;SDS011;14177;51.520;6.764;2023-08-07T04:38:19;10.27;;;2.20;;
26502;SDS011;14177;51.520;6.764;2023-08-07T04:40:47;7.88;;;1.83;;
26502;SDS011;14177;51.520;6.764;2023-08-07T04:43:16;10.32;;;1.80;;
26502;SDS011;14177;51.520;6.764;2023-08-07T04:45:45;15.02;;;2.53;;
26502;SDS011;14177;51.520;6.764;2023-08-07T04:48:13;9.63;;;2.30;;
26502;SDS011;14177;51.520;6.764;2023-08-07T04:50:41;5.85;;;1.70;;
26502;SDS011;14177;51.520;6.764;2023-08-07T04:53:08;12.52;;;2.20;;
26502;SDS011;14177;51.520;6.764;2023-08-07T04:55:35;7.15;;;1.75;;
26502;SDS011;14177;51.520;6.764;2023-08-07T04:58:02;9.27;;;2.13;;
26502;SDS011;14177;51.520;6.764;2023-08-07T05:00:29;8.65;;;2.17;;
26502;SDS011;14177;51.520;6.764;2023-08-07T05:02:57;7.35;;;2.03;;
26502;SDS011;14177;51.520;6.764;2023-08-07T05:05:24;5.25;;;1.60;;
26502;SDS011;14177;51.520;6.764;2023-08-07T05:07:51;13.70;;;2.47;;
26502;SDS011;14177;51.520;6.764;2023-08-07T05:10:20;5.65;;;1.70;;
26502;SDS011;14177;51.520;6.764;2023-08-07T05:12:47;9.70;;;2.40;;
26502;SDS011;14177;51.520;6.764;2023-08-07T05:15:15;6.63;;;2.00;;
26502;SDS011;14177;51.520;6.764;2023-08-07T05:17:42;8.00;;;2.35;;
26502;SDS011;14177;51.520;6.764;2023-08-07T05:20:09;8.45;;;1.95;;
26502;SDS011;14177;51.520;6.764;2023-08-07T05:22:37;6.18;;;1.95;;
26502;SDS011;14177;51.520;6.764;2023-08-07T05:25:04;12.80;;;2.28;;
26502;SDS011;14177;51.520;6.764;2023-08-07T05:27:31;7.53;;;2.28;;
26502;SDS011;14177;51.520;6.764;2023-08-07T05:29:59;7.75;;;2.15;;
26502;SDS011;14177;51.520;6.764;2023-08-07T05:32:26;5.85;;;2.03;;
26502;SDS011;14177;51.520;6.764;2023-08-07T05:34:54;10.93;;;2.20;;
26502;SDS011;14177;51.520;6.764;2023-08-07T05:37:22;8.55;;;1.95;;
26502;SDS011;14177;51.520;6.764;2023-08-07T05:39:49;11.57;;;1.98;;
26502;SDS011;14177;51.520;6.764;2023-08-07T05:42:16;11.27;;;2.05;;
26502;SDS011;14177;51.520;6.764;2023-08-07T05:44:43;5.63;;;1.77;;
26502;SDS011;14177;51.520;6.764;2023-08-07T05:47:10;7.32;;;2.05;;
26502;SDS011;14177;51.520;6.764;2023-08-07T05:49:37;9.32;;;2.45;;
26502;SDS011;14177;51.520;6.764;2023-08-07T05:52:04;7.45;;;2.08;;
26502;SDS011;14177;51.520;6.764;2023-08-07T05:54:32;5.72;;;1.60;;
26502;SDS011;14177;51.520;6.764;2023-08-07T05:57:00;4.78;;;1.73;;
26502;SDS011;14177;51.520;6.764;2023-08-07T05:59:27;5.15;;;1.70;;
26502;SDS011;14177;51.520;6.764;2023-08-07T06:01:55;4.38;;;1.80;;
26502;SDS011;14177;51.520;6.764;2023-08-07T06:04:25;7.63;;;1.70;;
26502;SDS011;14177;51.520;6.764;2023-08-07T06:06:52;9.10;;;2.17;;
26502;SDS011;14177;51.520;6.764;2023-08-07T06:09:19;4.97;;;1.55;;
26502;SDS011;14177;51.520;6.764;2023-08-07T06:11:48;7.30;;;2.10;;
26502;SDS011;14177;51.520;6.764;2023-08-07T06:14:15;7.22;;;1.60;;
26502;SDS011;14177;51.520;6.764;2023-08-07T06:16:43;5.13;;;1.80;;
26502;SDS011;14177;51.520;6.764;2023-08-07T06:19:10;8.55;;;1.80;;
26502;SDS011;14177;51.520;6.764;2023-08-07T06:21:50;6.55;;;1.77;;
26502;SDS011;14177;51.520;6.764;2023-08-07T06:24:17;4.72;;;1.60;;
26502;SDS011;14177;51.520;6.764;2023-08-07T06:26:44;7.03;;;1.70;;
26502;SDS011;14177;51.520;6.764;2023-08-07T06:29:11;3.20;;;1.30;;
26502;SDS011;14177;51.520;6.764;2023-08-07T06:31:38;6.53;;;1.60;;
26502;SDS011;14177;51.520;6.764;2023-08-07T06:34:06;4.55;;;1.42;;
26502;SDS011;14177;51.520;6.764;2023-08-07T06:36:33;1.90;;;1.15;;
26502;SDS011;14177;51.520;6.764;2023-08-07T06:38:59;4.70;;;1.38;;
26502;SDS011;14177;51.520;6.764;2023-08-07T06:41:26;5.20;;;1.45;;
26502;SDS011;14177;51.520;6.764;2023-08-07T06:43:54;5.78;;;1.55;;
26502;SDS011;14177;51.520;6.764;2023-08-07T06:46:21;3.10;;;1.40;;
26502;SDS011;14177;51.520;6.764;2023-08-07T06:48:53;3.67;;;1.60;;
26502;SDS011;14177;51.520;6.764;2023-08-07T06:51:20;4.10;;;1.67;;
26502;SDS011;14177;51.520;6.764;2023-08-07T06:53:47;7.13;;;1.83;;
26502;SDS011;14177;51.520;6.764;2023-08-07T06:56:14;7.05;;;1.40;;
26502;SDS011;14177;51.520;6.764;2023-08-07T06:58:44;7.07;;;1.63;;
26502;SDS011;14177;51.520;6.764;2023-08-07T07:01:42;8.27;;;1.88;;
26502;SDS011;14177;51.520;6.764;2023-08-07T07:04:09;5.75;;;1.70;;
26502;SDS011;14177;51.520;6.764;2023-08-07T07:06:36;6.10;;;1.77;;
26502;SDS011;14177;51.520;6.764;2023-08-07T07:09:04;5.55;;;1.75;;
26502;SDS011;14177;51.520;6.764;2023-08-07T07:11:31;7.82;;;2.00;;
26502;SDS011;14177;51.520;6.764;2023-08-07T07:13:58;7.35;;;1.85;;
26502;SDS011;14177;51.520;6.764;2023-08-07T07:16:25;5.57;;;1.48;;
26502;SDS011;14177;51.520;6.764;2023-08-07T07:18:56;3.65;;;1.77;;
26502;SDS011;14177;51.520;6.764;2023-08-07T07:21:24;3.55;;;1.40;;
26502;SDS011;14177;51.520;6.764;2023-08-07T07:23:51;9.10;;;1.70;;
26502;SDS011;14177;51.520;6.764;2023-08-07T07:26:18;6.78;;;1.70;;
26502;SDS011;14177;51.520;6.764;2023-08-07T07:28:46;4.97;;;1.58;;
26502;SDS011;14177;51.520;6.764;2023-08-07T07:31:13;9.07;;;2.05;;
26502;SDS011;14177;51.520;6.764;2023-08-07T07:33:40;4.28;;;1.98;;
26502;SDS011;14177;51.520;6.764;2023-08-07T07:36:13;4.82;;;1.95;;
26502;SDS011;14177;51.520;6.764;2023-08-07T07:38:45;6.75;;;1.88;;
26502;SDS011;14177;51.520;6.764;2023-08-07T07:41:14;6.63;;;1.75;;
26502;SDS011;14177;51.520;6.764;2023-08-07T07:43:42;6.25;;;1.60;;
26502;SDS011;14177;51.520;6.764;2023-08-07T07:46:13;3.55;;;1.80;;
26502;SDS011;14177;51.520;6.764;2023-08-07T07:48:40;6.07;;;1.80;;
26502;SDS011;14177;51.520;6.764;2023-08-07T07:51:07;6.53;;;1.80;;
26502;SDS011;14177;51.520;6.764;2023-08-07T07:53:34;5.43;;;1.88;;
26502;SDS011;14177;51.520;6.764;2023-08-07T07:56:02;6.10;;;2.20;;
26502;SDS011;14177;51.520;6.764;2023-08-07T07:58:29;6.65;;;1.80;;
26502;SDS011;14177;51.520;6.764;2023-08-07T08:00:56;4.57;;;1.70;;
26502;SDS011;14177;51.520;6.764;2023-08-07T08:03:23;7.55;;;1.83;;
26502;SDS011;14177;51.520;6.764;2023-08-07T08:05:51;8.30;;;2.00;;
26502;SDS011;14177;51.520;6.764;2023-08-07T08:08:18;5.40;;;1.50;;
26502;SDS011;14177;51.520;6.764;2023-08-07T08:10:46;9.85;;;1.90;;
26502;SDS011;14177;51.520;6.764;2023-08-07T08:13:14;4.55;;;1.80;;
26502;SDS011;14177;51.520;6.764;2023-08-07T08:15:42;8.82;;;1.60;;
26502;SDS011;14177;51.520;6.764;2023-08-07T08:18:11;3.35;;;1.42;;
26502;SDS011;14177;51.520;6.764;2023-08-07T08:20:38;3.35;;;1.70;;
26502;SDS011;14177;51.520;6.764;2023-08-07T08:23:05;5.95;;;1.42;;
26502;SDS011;14177;51.520;6.764;2023-08-07T08:25:33;5.25;;;1.77;;
26502;SDS011;14177;51.520;6.764;2023-08-07T08:28:00;7.07;;;1.55;;
26502;SDS011;14177;51.520;6.764;2023-08-07T08:30:28;5.75;;;1.65;;
26502;SDS011;14177;51.520;6.764;2023-08-07T08:32:56;9.13;;;1.70;;
26502;SDS011;14177;51.520;6.764;2023-08-07T08:35:23;4.05;;;1.55;;
26502;SDS011;14177;51.520;6.764;2023-08-07T08:37:50;10.20;;;1.77;;
26502;SDS011;14177;51.520;6.764;2023-08-07T08:40:17;9.45;;;2.00;;
26502;SDS011;14177;51.520;6.764;2023-08-07T08:42:45;8.45;;;2.28;;
26502;SDS011;14177;51.520;6.764;2023-08-07T08:45:13;9.80;;;2.50;;
26502;SDS011;14177;51.520;6.764;2023-08-07T08:47:41;5.70;;;1.85;;
26502;SDS011;14177;51.520;6.764;2023-08-07T08:50:12;7.20;;;1.88;;
26502;SDS011;14177;51.520;6.764;2023-08-07T08:52:42;11.63;;;2.40;;
26502;SDS011;14177;51.520;6.764;2023-08-07T08:55:12;5.80;;;1.67;;
26502;SDS011;14177;51.520;6.764;2023-08-07T08:57:40;9.18;;;2.10;;
26502;SDS011;14177;51.520;6.764;2023-08-07T09:00:09;3.53;;;1.42;;
26502;SDS011;14177;51.520;6.764;2023-08-07T09:02:47;9.88;;;2.40;;
26502;SDS011;14177;51.520;6.764;2023-08-07T09:05:15;5.28;;;1.67;;
26502;SDS011;14177;51.520;6.764;2023-08-07T09:07:47;4.72;;;1.65;;
26502;SDS011;14177;51.520;6.764;2023-08-07T09:10:18;7.07;;;2.33;;
26502;SDS011;14177;51.520;6.764;2023-08-07T09:13:02;9.68;;;1.70;;
26502;SDS011;14177;51.520;6.764;2023-08-07T09:15:32;9.30;;;2.17;;
26502;SDS011;14177;51.520;6.764;2023-08-07T09:18:00;9.30;;;2.15;;
26502;SDS011;14177;51.520;6.764;2023-08-07T09:20:34;6.50;;;2.03;;
26502;SDS011;14177;51.520;6.764;2023-08-07T09:23:04;8.05;;;1.73;;
26502;SDS011;14177;51.520;6.764;2023-08-07T09:25:32;9.43;;;2.00;;
26502;SDS011;14177;51.520;6.764;2023-08-07T09:28:01;6.28;;;1.60;;
26502;SDS011;14177;51.520;6.764;2023-08-07T09:30:34;4.25;;;1.30;;
26502;SDS011;14177;51.520;6.764;2023-08-07T09:33:14;5.43;;;1.70;;
26502;SDS011;14177;51.520;6.764;2023-08-07T09:35:41;7.65;;;1.60;;
26502;SDS011;14177;51.520;6.764;2023-08-07T09:38:13;6.18;;;1.50;;
26502;SDS011;14177;51.520;6.764;2023-08-07T09:41:01;5.00;;;1.45;;
26502;SDS011;14177;51.520;6.764;2023-08-07T09:43:36;5.30;;;1.88;;
26502;SDS011;14177;51.520;6.764;2023-08-07T09:46:06;7.38;;;1.95;;
26502;SDS011;14177;51.520;6.764;2023-08-07T09:48:41;8.23;;;2.50;;
26502;SDS011;14177;51.520;6.764;2023-08-07T09:51:10;6.80;;;2.13;;
26502;SDS011;14177;51.520;6.764;2023-08-07T09:53:38;13.93;;;2.50;;
26502;SDS011;14177;51.520;6.764;2023-08-07T09:56:05;9.93;;;2.20;;
26502;SDS011;14177;51.520;6.764;2023-08-07T09:58:33;6.28;;;2.35;;
26502;SDS011;14177;51.520;6.764;2023-08-07T10:01:00;10.93;;;2.03;;
26502;SDS011;14177;51.520;6.764;2023-08-07T10:03:31;5.57;;;1.80;;
26502;SDS011;14177;51.520;6.764;2023-08-07T10:05:58;9.27;;;2.10;;
26502;SDS011;14177;51.520;6.764;2023-08-07T10:08:28;6.28;;;1.80;;
26502;SDS011;14177;51.520;6.764;2023-08-07T10:10:57;5.07;;;2.05;;
26502;SDS011;14177;51.520;6.764;2023-08-07T10:13:26;7.50;;;2.35;;
26502;SDS011;14177;51.520;6.764;2023-08-07T10:15:59;5.40;;;1.73;;
26502;SDS011;14177;51.520;6.764;2023-08-07T10:18:27;6.88;;;1.88;;
26502;SDS011;14177;51.520;6.764;2023-08-07T10:20:55;8.80;;;2.03;;
26502;SDS011;14177;51.520;6.764;2023-08-07T10:23:26;10.57;;;1.75;;
26502;SDS011;14177;51.520;6.764;2023-08-07T10:25:54;8.23;;;2.33;;
26502;SDS011;14177;51.520;6.764;2023-08-07T10:28:23;9.45;;;2.30;;
26502;SDS011;14177;51.520;6.764;2023-08-07T10:30:55;9.02;;;2.45;;
26502;SDS011;14177;51.520;6.764;2023-08-07T10:33:24;10.60;;;2.45;;
26502;SDS011;14177;51.520;6.764;2023-08-07T10:35:52;8.77;;;2.30;;
26502;SDS011;14177;51.520;6.764;2023-08-07T10:38:19;9.52;;;3.17;;
26502;SDS011;14177;51.520;6.764;2023-08-07T10:40:58;10.52;;;2.38;;
26502;SDS011;14177;51.520;6.764;2023-08-07T10:43:40;6.18;;;1.90;;
26502;SDS011;14177;51.520;6.764;2023-08-07T10:46:12;9.38;;;2.38;;
26502;SDS011;14177;51.520;6.764;2023-08-07T10:48:42;6.60;;;2.05;;
26502;SDS011;14177;51.520;6.764;2023-08-07T10:51:14;11.48;;;2.38;;
26502;SDS011;14177;51.520;6.764;2023-08-07T10:53:44;5.68;;;1.88;;
26502;SDS011;14177;51.520;6.764;2023-08-07T10:56:18;10.23;;;2.28;;
26502;SDS011;14177;51.520;6.764;2023-08-07T10:58:57;8.18;;;2.40;;
26502;SDS011;14177;51.520;6.764;2023-08-07T11:01:39;10.98;;;2.63;;
26502;SDS011;14177;51.520;6.764;2023-08-07T11:04:12;10.13;;;2.03;;
26502;SDS011;14177;51.520;6.764;2023-08-07T11:06:42;7.63;;;1.98;;
26502;SDS011;14177;51.520;6.764;2023-08-07T11:09:14;6.75;;;2.08;;
26502;SDS011;14177;51.520;6.764;2023-08-07T11:11:51;7.45;;;1.90;;
26502;SDS011;14177;51.520;6.764;2023-08-07T11:14:19;4.40;;;1.90;;
26502;SDS011;14177;51.520;6.764;2023-08-07T11:16:46;5.90;;;1.65;;
26502;SDS011;14177;51.520;6.764;2023-08-07T11:19:15;5.18;;;1.85;;
26502;SDS011;14177;51.520;6.764;2023-08-07T11:21:44;4.80;;;1.80;;
26502;SDS011;14177;51.520;6.764;2023-08-07T11:24:12;7.50;;;1.90;;
26502;SDS011;14177;51.520;6.764;2023-08-07T11:26:42;9.98;;;2.17;;
26502;SDS011;14177;51.520;6.764;2023-08-07T11:29:10;3.28;;;1.98;;
26502;SDS011;14177;51.520;6.764;2023-08-07T11:31:45;5.75;;;1.60;;
26502;SDS011;14177;51.520;6.764;2023-08-07T11:34:12;4.22;;;1.92;;
26502;SDS011;14177;51.520;6.764;2023-08-07T11:36:43;7.55;;;1.73;;
26502;SDS011;14177;51.520;6.764;2023-08-07T11:39:11;6.70;;;2.22;;
26502;SDS011;14177;51.520;6.764;2023-08-07T11:41:43;5.70;;;1.80;;
26502;SDS011;14177;51.520;6.764;2023-08-07T11:44:10;11.82;;;2.17;;
26502;SDS011;14177;51.520;6.764;2023-08-07T11:46:38;7.50;;;1.90;;
26502;SDS011;14177;51.520;6.764;2023-08-07T11:49:11;5.63;;;1.85;;
26502;SDS011;14177;51.520;6.764;2023-08-07T11:51:39;5.32;;;1.33;;
26502;SDS011;14177;51.520;6.764;2023-08-07T11:54:06;5.43;;;1.65;;
26502;SDS011;14177;51.520;6.764;2023-08-07T11:56:33;8.85;;;1.90;;
26502;SDS011;14177;51.520;6.764;2023-08-07T11:59:00;7.40;;;1.42;;
26502;SDS011;14177;51.520;6.764;2023-08-07T12:01:30;3.45;;;1.30;;
26502;SDS011;14177;51.520;6.764;2023-08-07T12:06:36;4.63;;;1.23;;
26502;SDS011;14177;51.520;6.764;2023-08-07T12:09:11;5.22;;;1.35;;
26502;SDS011;14177;51.520;6.764;2023-08-07T12:11:39;4.60;;;1.30;;
26502;SDS011;14177;51.520;6.764;2023-08-07T12:14:07;6.03;;;1.80;;
26502;SDS011;14177;51.520;6.764;2023-08-07T12:16:34;6.82;;;1.48;;
26502;SDS011;14177;51.520;6.764;2023-08-07T12:19:01;4.90;;;1.70;;
26502;SDS011;14177;51.520;6.764;2023-08-07T12:21:30;6.80;;;1.73;;
26502;SDS011;14177;51.520;6.764;2023-08-07T12:23:59;7.28;;;1.52;;
26502;SDS011;14177;51.520;6.764;2023-08-07T12:26:26;6.82;;;1.45;;
26502;SDS011;14177;51.520;6.764;2023-08-07T12:28:54;4.43;;;1.23;;
26502;SDS011;14177;51.520;6.764;2023-08-07T12:31:21;8.25;;;1.30;;
26502;SDS011;14177;51.520;6.764;2023-08-07T12:33:48;6.10;;;1.42;;
26502;SDS011;14177;51.520;6.764;2023-08-07T12:36:16;5.13;;;1.30;;
26502;SDS011;14177;51.520;6.764;2023-08-07T12:38:46;6.10;;;1.40;;
26502;SDS011;14177;51.520;6.764;2023-08-07T12:41:13;3.42;;;1.48;;
26502;SDS011;14177;51.520;6.764;2023-08-07T12:43:44;2.63;;;1.50;;
26502;SDS011;14177;51.520;6.764;2023-08-07T12:46:11;5.75;;;1.85;;
26502;SDS011;14177;51.520;6.764;2023-08-07T12:48:41;4.85;;;1.42;;
26502;SDS011;14177;51.520;6.764;2023-08-07T12:51:08;6.20;;;1.52;;
26502;SDS011;14177;51.520;6.764;2023-08-07T12:53:35;7.68;;;1.60;;
26502;SDS011;14177;51.520;6.764;2023-08-07T12:56:02;7.72;;;1.70;;
26502;SDS011;14177;51.520;6.764;2023-08-07T12:58:31;3.35;;;1.33;;
26502;SDS011;14177;51.520;6.764;2023-08-07T13:00:58;6.47;;;1.38;;
26502;SDS011;14177;51.520;6.764;2023-08-07T13:03:25;6.57;;;1.60;;
26502;SDS011;14177;51.520;6.764;2023-08-07T13:05:52;3.40;;;1.05;;
26502;SDS011;14177;51.520;6.764;2023-08-07T13:08:21;10.05;;;1.65;;
26502;SDS011;14177;51.520;6.764;2023-08-07T13:10:48;8.88;;;1.80;;
26502;SDS011;14177;51.520;6.764;2023-08-07T13:13:15;9.25;;;1.90;;
26502;SDS011;14177;51.520;6.764;2023-08-07T13:15:42;5.97;;;1.48;;
26502;SDS011;14177;51.520;6.764;2023-08-07T13:18:10;4.53;;;1.15;;
26502;SDS011;14177;51.520;6.764;2023-08-07T13:20:37;6.45;;;1.20;;
26502;SDS011;14177;51.520;6.764;2023-08-07T13:23:04;4.95;;;1.38;;
26502;SDS011;14177;51.520;6.764;2023-08-07T13:25:33;3.22;;;1.15;;
26502;SDS011;14177;51.520;6.764;2023-08-07T13:28:00;5.57;;;1.25;;
26502;SDS011;14177;51.520;6.764;2023-08-07T13:30:30;5.63;;;0.85;;
26502;SDS011;14177;51.520;6.764;2023-08-07T13:33:02;3.50;;;1.20;;
26502;SDS011;14177;51.520;6.764;2023-08-07T13:35:29;3.13;;;1.10;;
26502;SDS011;14177;51.520;6.764;2023-08-07T13:37:57;2.08;;;1.00;;
26502;SDS011;14177;51.520;6.764;2023-08-07T13:40:24;3.15;;;1.00;;
26502;SDS011;14177;51.520;6.764;2023-08-07T13:42:51;5.63;;;1.30;;
26502;SDS011;14177;51.520;6.764;2023-08-07T13:45:19;3.88;;;1.08;;
26502;SDS011;14177;51.520;6.764;2023-08-07T13:47:47;8.82;;;1.35;;
26502;SDS011;14177;51.520;6.764;2023-08-07T13:50:14;6.55;;;1.33;;
26502;SDS011;14177;51.520;6.764;2023-08-07T13:52:41;4.28;;;1.20;;
26502;SDS011;14177;51.520;6.764;2023-08-07T13:55:08;3.40;;;1.35;;
26502;SDS011;14177;51.520;6.764;2023-08-07T13:57:36;7.63;;;1.40;;
26502;SDS011;14177;51.520;6.764;2023-08-07T14:00:03;8.13;;;1.30;;
26502;SDS011;14177;51.520;6.764;2023-08-07T14:02:31;2.60;;;1.13;;
26502;SDS011;14177;51.520;6.764;2023-08-07T14:05:01;6.13;;;1.40;;
26502;SDS011;14177;51.520;6.764;2023-08-07T14:07:28;4.18;;;1.30;;
26502;SDS011;14177;51.520;6.764;2023-08-07T14:09:55;6.60;;;1.48;;
26502;SDS011;14177;51.520;6.764;2023-08-07T14:12:23;5.85;;;1.25;;
26502;SDS011;14177;51.520;6.764;2023-08-07T14:14:50;7.97;;;1.45;;
26502;SDS011;14177;51.520;6.764;2023-08-07T14:17:17;3.50;;;1.10;;
26502;SDS011;14177;51.520;6.764;2023-08-07T14:19:44;5.57;;;1.30;;
26502;SDS011;14177;51.520;6.764;2023-08-07T14:22:13;5.50;;;1.25;;
26502;SDS011;14177;51.520;6.764;2023-08-07T14:25:03;4.68;;;1.35;;
26502;SDS011;14177;51.520;6.764;2023-08-07T14:27:31;3.30;;;1.15;;
26502;SDS011;14177;51.520;6.764;2023-08-07T14:29:59;6.10;;;1.25;;
26502;SDS011;14177;51.520;6.764;2023-08-07T14:32:27;3.17;;;1.02;;
26502;SDS011;14177;51.520;6.764;2023-08-07T14:34:54;4.93;;;1.20;;
26502;SDS011;14177;51.520;6.764;2023-08-07T14:37:21;2.53;;;0.80;;
26502;SDS011;14177;51.520;6.764;2023-08-07T14:39:48;1.90;;;0.93;;
26502;SDS011;14177;51.520;6.764;2023-08-07T14:42:15;1.45;;;0.63;;
26502;SDS011;14177;51.520;6.764;2023-08-07T14:44:42;2.45;;;0.90;;
26502;SDS011;14177;51.520;6.764;2023-08-07T14:47:09;3.92;;;1.00;;
26502;SDS011;14177;51.520;6.764;2023-08-07T14:49:36;2.95;;;0.75;;
26502;SDS011;14177;51.520;6.764;2023-08-07T14:52:03;4.70;;;1.00;;
26502;SDS011;14177;51.520;6.764;2023-08-07T14:54:31;1.77;;;0.80;;
26502;SDS011;14177;51.520;6.764;2023-08-07T14:56:59;2.58;;;1.10;;
26502;SDS011;14177;51.520;6.764;2023-08-07T14:59:26;5.25;;;1.35;;
26502;SDS011;14177;51.520;6.764;2023-08-07T15:01:53;5.65;;;0.95;;
26502;SDS011;14177;51.520;6.764;2023-08-07T15:04:21;2.47;;;0.75;;
26502;SDS011;14177;51.520;6.764;2023-08-07T15:06:48;6.40;;;1.20;;
26502;SDS011;14177;51.520;6.764;2023-08-07T15:09:16;4.82;;;1.20;;
26502;SDS011;14177;51.520;6.764;2023-08-07T15:11:46;6.40;;;1.10;;